createdAt,value
2023-03-02T00:00:27.203Z,6.35
2023-03-02T00:05:29.698Z,4.35
2023-03-02T00:10:31.387Z,6.20
2023-03-02T00:15:32.891Z,6.05
2023-03-02T00:20:35.829Z,7.15
2023-03-02T00:25:37.328Z,4.72
2023-03-02T00:30:39.181Z,5.25
2023-03-02T00:35:41.732Z,7.65
2023-03-02T00:40:49.316Z,4.88
2023-03-02T00:45:50.788Z,7.18
2023-03-02T00:50:52.286Z,8.07
2023-03-02T00:55:54.792Z,7.53
2023-03-02T01:00:58.537Z,7.63
2023-03-02T01:06:21.089Z,5.70
2023-03-02T01:11:22.828Z,5.03
2023-03-02T01:16:25.932Z,5.80
2023-03-02T01:21:27.475Z,8.10
2023-03-02T01:26:29.178Z,6.90
2023-03-02T01:31:31.442Z,7.95
2023-03-02T01:36:33.558Z,6.78
2023-03-02T01:41:35.332Z,5.88
2023-03-02T01:46:36.874Z,4.72
2023-03-02T01:51:45.069Z,5.30
2023-03-02T01:56:47.201Z,6.20
2023-03-02T02:01:52.698Z,4.72
2023-03-02T02:06:59.505Z,4.15
2023-03-02T02:12:01.357Z,7.93
2023-03-02T02:17:03.112Z,4.38
2023-03-02T02:22:04.948Z,4.53
2023-03-02T02:27:06.491Z,5.88
2023-03-02T02:32:30.713Z,5.43
2023-03-02T02:37:44.735Z,4.20
2023-03-02T02:42:51.930Z,5.03
2023-03-02T02:47:56.227Z,5.97
2023-03-02T02:53:03.619Z,6.65
2023-03-02T02:58:31.597Z,6.78
2023-03-02T03:03:36.620Z,7.35
2023-03-02T03:08:41.324Z,6.40
2023-03-02T03:13:46.878Z,6.70
2023-03-02T03:18:51.198Z,5.53
2023-03-02T03:23:53.680Z,7.15
2023-03-02T03:28:57.244Z,5.82
2023-03-02T03:34:00.644Z,9.98
2023-03-02T03:39:06.270Z,7.18
2023-03-02T03:44:09.015Z,6.57
2023-03-02T03:49:12.485Z,5.57
2023-03-02T03:54:14.782Z,7.63
2023-03-02T03:59:20.250Z,10.15
2023-03-02T04:04:34.479Z,6.80
2023-03-02T04:09:41.192Z,8.25
2023-03-02T04:14:45.617Z,4.90
2023-03-02T04:19:47.489Z,10.40
2023-03-02T04:24:51.755Z,7.95
2023-03-02T04:29:53.665Z,9.30
2023-03-02T04:34:55.593Z,15.82
2023-03-02T04:39:57.918Z,5.15
2023-03-02T04:44:59.533Z,6.65
2023-03-02T04:50:01.047Z,8.25
2023-03-02T04:55:04.326Z,4.90
2023-03-02T05:00:09.777Z,6.10
2023-03-02T05:05:18.253Z,6.40
2023-03-02T05:10:21.967Z,6.75
2023-03-02T05:15:26.493Z,11.70
2023-03-02T05:20:30.164Z,6.10
2023-03-02T05:25:35.196Z,7.90
2023-03-02T05:30:37.597Z,7.47
2023-03-02T05:35:39.651Z,4.75
2023-03-02T05:40:42.521Z,4.70
2023-03-02T05:45:44.829Z,5.75
2023-03-02T05:50:46.437Z,7.70
2023-03-02T05:55:48.759Z,4.53
2023-03-02T06:00:50.320Z,10.07
2023-03-02T06:05:52.248Z,4.70
2023-03-02T06:10:57.101Z,5.75
2023-03-02T06:15:58.851Z,7.35
2023-03-02T06:21:00.448Z,5.50
2023-03-02T06:26:11.501Z,9.82
2023-03-02T06:31:13.003Z,6.40
2023-03-02T06:36:16.903Z,4.57
2023-03-02T06:41:18.503Z,5.97
2023-03-02T06:46:20.168Z,6.30
2023-03-02T06:51:21.753Z,7.28
2023-03-02T06:56:23.467Z,8.02
2023-03-02T07:01:25.013Z,6.88
2023-03-02T07:06:26.595Z,6.25
2023-03-02T07:11:28.097Z,10.20
2023-03-02T07:16:31.147Z,7.75
2023-03-02T07:21:32.993Z,5.30
2023-03-02T07:26:35.007Z,5.30
2023-03-02T07:31:36.673Z,8.23
2023-03-02T07:36:38.245Z,6.43
2023-03-02T07:41:39.767Z,4.70
2023-03-02T07:46:41.476Z,6.95
2023-03-02T07:51:43.024Z,5.50
2023-03-02T07:56:44.580Z,6.45
2023-03-02T08:01:46.156Z,5.75
2023-03-02T08:06:47.841Z,7.50
2023-03-02T08:11:49.488Z,6.47
2023-03-02T08:16:52.242Z,7.90
2023-03-02T08:21:53.936Z,6.20
2023-03-02T08:26:55.743Z,6.78
2023-03-02T08:31:58.891Z,6.25
2023-03-02T08:37:00.563Z,5.43
2023-03-02T08:42:02.120Z,7.78
2023-03-02T08:47:03.708Z,8.13
2023-03-02T08:52:05.560Z,7.80
2023-03-02T08:57:10.734Z,5.82
2023-03-02T09:02:12.415Z,9.43
2023-03-02T09:07:17.286Z,5.43
2023-03-02T09:12:18.914Z,8.20
2023-03-02T09:17:20.468Z,5.97
2023-03-02T09:22:21.968Z,8.35
2023-03-02T09:27:23.504Z,4.97
2023-03-02T09:32:25.466Z,6.72
2023-03-02T09:37:30.220Z,8.05
2023-03-02T09:42:56.344Z,8.50
2023-03-02T09:48:03.516Z,5.78
2023-03-02T09:53:29.233Z,7.97
2023-03-02T09:58:42.031Z,7.25
2023-03-02T10:03:58.647Z,9.25
2023-03-02T10:09:00.356Z,7.57
2023-03-02T10:14:17.689Z,6.95
2023-03-02T10:19:25.090Z,6.93
2023-03-02T10:24:34.458Z,9.07
2023-03-02T10:34:38.099Z,5.07
2023-03-02T10:39:39.475Z,5.75
2023-03-02T10:44:45.961Z,7.10
2023-03-02T10:49:47.781Z,9.77
2023-03-02T10:54:50.291Z,6.45
2023-03-02T10:59:52.308Z,7.47
2023-03-02T11:04:57.820Z,10.85
2023-03-02T11:10:17.014Z,6.50
2023-03-02T11:15:49.972Z,7.10
2023-03-02T11:20:59.838Z,6.57
2023-03-02T11:26:06.943Z,8.40
2023-03-02T11:31:16.349Z,6.15
2023-03-02T11:36:23.292Z,7.22
2023-03-02T11:41:32.092Z,5.47
2023-03-02T11:46:34.727Z,9.52
2023-03-02T11:51:47.080Z,7.55
2023-03-02T11:56:51.655Z,8.40
2023-03-02T12:01:54.957Z,7.03
2023-03-02T12:06:56.679Z,7.55
2023-03-02T12:12:14.924Z,9.27
2023-03-02T12:17:30.693Z,8.45
2023-03-02T12:22:32.688Z,9.40
2023-03-02T12:27:39.641Z,7.18
2023-03-02T12:32:44.343Z,8.07
2023-03-02T12:37:58.547Z,9.90
2023-03-02T12:43:31.271Z,6.68
2023-03-02T12:49:10.908Z,6.78
2023-03-02T12:54:15.697Z,6.13
2023-03-02T12:59:26.833Z,5.40
2023-03-02T13:04:28.364Z,7.82
2023-03-02T13:09:29.900Z,10.07
2023-03-02T13:14:31.644Z,8.38
2023-03-02T13:19:33.727Z,5.25
2023-03-02T13:24:55.076Z,6.18
2023-03-02T13:30:07.751Z,4.32
2023-03-02T13:35:24.980Z,5.55
2023-03-02T13:40:27.611Z,5.97
2023-03-02T13:45:32.860Z,5.57
2023-03-02T13:50:34.316Z,8.57
2023-03-02T13:55:35.802Z,8.55
2023-03-02T14:00:39.125Z,8.88
2023-03-02T14:05:40.595Z,10.07
2023-03-02T14:10:42.396Z,4.45
2023-03-02T14:15:49.142Z,8.55
2023-03-02T14:20:50.667Z,9.80
2023-03-02T14:25:53.639Z,4.80
2023-03-02T14:30:57.406Z,15.82
2023-03-02T14:35:59.046Z,5.13
2023-03-02T14:41:00.681Z,6.50
2023-03-02T14:46:02.212Z,6.68
2023-03-02T14:51:04.269Z,4.68
2023-03-02T14:56:07.905Z,7.13
2023-03-02T15:01:11.408Z,6.60
2023-03-02T15:06:25.361Z,6.45
2023-03-02T15:11:28.043Z,4.03
2023-03-02T15:16:29.552Z,5.20
2023-03-02T15:21:31.255Z,9.35
2023-03-02T15:26:32.970Z,7.18
2023-03-02T15:31:34.801Z,8.00
2023-03-02T15:36:36.587Z,9.50
2023-03-02T15:41:38.153Z,4.88
2023-03-02T15:46:39.689Z,7.65
2023-03-02T15:51:41.246Z,6.38
2023-03-02T15:56:44.993Z,8.73
2023-03-02T16:01:46.428Z,6.13
2023-03-02T16:06:47.964Z,5.25
2023-03-02T16:11:50.037Z,8.18
2023-03-02T16:16:51.513Z,6.45
2023-03-02T16:21:53.134Z,7.97
2023-03-02T16:26:54.656Z,5.85
2023-03-02T16:31:56.181Z,9.95
2023-03-02T16:36:57.661Z,6.65
2023-03-02T16:41:59.309Z,7.63
2023-03-02T16:47:00.785Z,11.35
2023-03-02T16:52:02.337Z,5.45
2023-03-02T16:57:03.898Z,6.50
2023-03-02T17:02:05.347Z,7.60
2023-03-02T17:07:07.601Z,8.40
2023-03-02T17:12:09.318Z,5.13
2023-03-02T17:17:10.802Z,8.75
2023-03-02T17:22:12.868Z,7.50
2023-03-02T17:27:24.488Z,6.03
2023-03-02T17:32:26.710Z,9.27
2023-03-02T17:37:30.196Z,10.95
2023-03-02T17:42:31.835Z,13.15
2023-03-02T17:47:33.896Z,7.75
2023-03-02T17:52:35.372Z,8.23
2023-03-02T17:57:37.201Z,10.43
2023-03-02T18:02:38.687Z,6.18
2023-03-02T18:07:40.293Z,13.70
2023-03-02T18:12:41.798Z,6.45
2023-03-02T18:17:43.699Z,9.15
2023-03-02T18:22:45.232Z,7.43
2023-03-02T18:27:46.874Z,8.75
2023-03-02T18:32:48.967Z,12.50
2023-03-02T18:37:50.671Z,8.57
2023-03-02T18:42:52.213Z,10.18
2023-03-02T18:47:54.204Z,8.18
2023-03-02T18:52:55.822Z,12.05
2023-03-02T18:57:57.275Z,9.80
2023-03-02T19:02:58.863Z,13.15
2023-03-02T19:08:00.320Z,12.38
2023-03-02T19:13:01.909Z,11.38
2023-03-02T19:18:03.549Z,14.85
2023-03-02T19:23:05.113Z,13.45
2023-03-02T19:28:07.423Z,13.88
2023-03-02T19:33:09.779Z,16.45
2023-03-02T19:38:11.405Z,14.10
2023-03-02T19:43:12.919Z,15.98
2023-03-02T19:53:17.001Z,15.90
2023-03-02T19:58:20.210Z,14.18
2023-03-02T20:03:21.939Z,17.30
2023-03-02T20:08:23.561Z,13.00
2023-03-02T20:13:27.165Z,16.83
2023-03-02T20:18:28.912Z,19.13
2023-03-02T20:23:30.354Z,14.35
2023-03-02T20:28:32.972Z,14.13
2023-03-02T20:33:38.320Z,15.93
2023-03-02T20:38:44.502Z,15.32
2023-03-02T20:43:45.971Z,15.43
2023-03-02T20:48:48.139Z,18.35
2023-03-02T20:53:50.094Z,14.52
2023-03-02T20:58:52.652Z,18.33
2023-03-02T21:03:54.308Z,20.52
2023-03-02T21:08:56.820Z,15.50
2023-03-02T21:14:01.917Z,15.95
2023-03-02T21:19:08.526Z,21.50
2023-03-02T21:24:12.203Z,20.02
2023-03-02T21:29:14.228Z,17.98
2023-03-02T21:34:16.668Z,16.38
2023-03-02T21:39:18.445Z,19.23
2023-03-02T21:44:20.159Z,13.98
2023-03-02T21:49:22.993Z,18.20
2023-03-02T21:54:24.447Z,19.48
2023-03-02T21:59:25.908Z,20.65
2023-03-02T22:04:27.672Z,17.92
2023-03-02T22:09:29.461Z,18.08
2023-03-02T22:14:31.008Z,24.20
2023-03-02T22:19:32.714Z,23.75
2023-03-02T22:24:34.346Z,20.70
2023-03-02T22:29:45.136Z,22.33
2023-03-02T22:34:52.452Z,21.02
2023-03-02T22:39:56.748Z,20.58
2023-03-02T22:45:17.211Z,29.23
2023-03-02T22:50:27.529Z,19.77
2023-03-02T22:55:35.133Z,26.25
2023-03-02T23:00:40.640Z,25.08
2023-03-02T23:05:42.638Z,22.95
2023-03-02T23:10:45.497Z,31.92
2023-03-02T23:15:48.083Z,27.15
2023-03-02T23:20:50.497Z,26.70
2023-03-02T23:25:52.044Z,27.52
2023-03-02T23:30:53.477Z,29.77
2023-03-02T23:35:55.020Z,30.33
2023-03-02T23:40:56.539Z,24.92
2023-03-02T23:45:58.104Z,25.58
2023-03-02T23:51:00.715Z,34.10
2023-03-02T23:56:03.266Z,33.90
